createdAt,value
2023-04-26T00:02:00.891Z,8.30
2023-04-26T00:04:29.087Z,8.02
2023-04-26T00:06:56.530Z,7.53
2023-04-26T00:09:23.383Z,8.57
2023-04-26T00:11:50.249Z,11.75
2023-04-26T00:14:17.321Z,7.78
2023-04-26T00:16:44.245Z,7.97
2023-04-26T00:19:11.811Z,6.85
2023-04-26T00:21:39.617Z,7.57
2023-04-26T00:24:07.295Z,7.57
2023-04-26T00:26:34.867Z,7.50
2023-04-26T00:29:04.376Z,9.68
2023-04-26T00:31:31.180Z,8.02
2023-04-26T00:33:58.120Z,8.52
2023-04-26T00:36:25.000Z,7.40
2023-04-26T00:38:51.950Z,11.70
2023-04-26T00:41:19.033Z,9.10
2023-04-26T00:43:45.833Z,10.27
2023-04-26T00:46:13.247Z,6.90
2023-04-26T00:48:40.438Z,6.97
2023-04-26T00:51:07.910Z,7.60
2023-04-26T00:53:35.507Z,5.03
2023-04-26T00:56:03.312Z,10.52
2023-04-26T00:58:30.607Z,7.38
2023-04-26T01:00:57.459Z,6.88
2023-04-26T01:03:25.278Z,8.40
2023-04-26T01:05:53.327Z,6.60
2023-04-26T01:08:21.686Z,8.50
2023-04-26T01:10:53.163Z,6.68
2023-04-26T01:13:20.680Z,5.05
2023-04-26T01:15:49.135Z,7.00
2023-04-26T01:18:15.979Z,7.10
2023-04-26T01:20:43.216Z,9.00
2023-04-26T01:23:11.716Z,8.40
2023-04-26T01:25:39.217Z,9.50
2023-04-26T01:28:06.127Z,8.68
2023-04-26T01:30:33.019Z,9.45
2023-04-26T01:33:03.480Z,8.90
2023-04-26T01:35:30.472Z,6.20
2023-04-26T01:37:57.274Z,8.77
2023-04-26T01:40:24.034Z,6.43
2023-04-26T01:42:50.840Z,7.18
2023-04-26T01:45:17.720Z,6.45
2023-04-26T01:48:03.070Z,7.00
2023-04-26T01:50:32.340Z,6.18
2023-04-26T01:52:59.189Z,8.65
2023-04-26T01:55:26.063Z,7.95
2023-04-26T01:57:52.831Z,11.27
2023-04-26T02:00:20.275Z,7.65
2023-04-26T02:02:49.644Z,7.40
2023-04-26T02:05:16.600Z,7.05
2023-04-26T02:07:43.431Z,8.23
2023-04-26T02:10:10.605Z,7.47
2023-04-26T02:12:37.594Z,7.13
2023-04-26T02:15:06.176Z,5.25
2023-04-26T02:17:34.615Z,6.60
2023-04-26T02:20:01.412Z,8.40
2023-04-26T02:22:28.294Z,8.05
2023-04-26T02:24:55.268Z,6.32
2023-04-26T02:27:27.832Z,6.38
2023-04-26T02:29:55.031Z,6.70
2023-04-26T02:32:22.040Z,8.60
2023-04-26T02:34:48.979Z,11.65
2023-04-26T02:37:15.804Z,6.88
2023-04-26T02:39:42.614Z,6.07
2023-04-26T02:42:12.986Z,7.78
2023-04-26T02:44:40.151Z,8.75
2023-04-26T02:47:07.845Z,8.02
2023-04-26T02:49:35.194Z,9.68
2023-04-26T02:52:02.148Z,8.75
2023-04-26T02:54:30.737Z,8.20
2023-04-26T02:56:58.721Z,9.18
2023-04-26T02:59:25.827Z,8.98
2023-04-26T03:01:52.730Z,6.03
2023-04-26T03:04:19.709Z,7.68
2023-04-26T03:06:46.591Z,9.30
2023-04-26T03:09:13.486Z,9.68
2023-04-26T03:11:41.930Z,10.95
2023-04-26T03:14:08.837Z,8.13
2023-04-26T03:16:43.241Z,10.43
2023-04-26T03:19:10.240Z,13.35
2023-04-26T03:21:38.592Z,12.25
2023-04-26T03:24:07.072Z,8.57
2023-04-26T03:26:34.261Z,7.93
2023-04-26T03:29:02.147Z,7.88
2023-04-26T03:31:28.957Z,8.32
2023-04-26T03:33:55.847Z,9.85
2023-04-26T03:36:22.703Z,10.20
2023-04-26T03:38:49.728Z,8.80
2023-04-26T03:41:17.868Z,9.68
2023-04-26T03:43:44.667Z,9.35
2023-04-26T03:46:11.543Z,11.18
2023-04-26T03:48:38.357Z,11.45
2023-04-26T03:51:06.117Z,12.52
2023-04-26T03:53:33.250Z,10.55
2023-04-26T03:56:00.056Z,10.68
2023-04-26T03:58:28.570Z,9.55
2023-04-26T04:00:59.025Z,14.68
2023-04-26T04:03:26.239Z,7.70
2023-04-26T04:05:53.240Z,8.65
2023-04-26T04:08:20.039Z,8.05
2023-04-26T04:10:46.928Z,8.85
2023-04-26T04:13:13.899Z,11.32
2023-04-26T04:15:41.661Z,7.85
2023-04-26T04:18:08.929Z,8.35
2023-04-26T04:20:36.345Z,9.77
2023-04-26T04:23:05.619Z,10.65
2023-04-26T04:25:32.602Z,10.00
2023-04-26T04:28:03.512Z,8.73
2023-04-26T04:30:30.849Z,10.25
2023-04-26T04:33:01.058Z,9.82
2023-04-26T04:35:33.498Z,10.43
2023-04-26T04:38:03.287Z,9.57
2023-04-26T04:40:30.853Z,8.02
2023-04-26T04:43:00.894Z,8.13
2023-04-26T04:45:28.450Z,12.45
2023-04-26T04:47:57.238Z,10.52
2023-04-26T04:50:24.220Z,10.90
2023-04-26T04:52:51.083Z,11.15
2023-04-26T04:55:18.015Z,9.88
2023-04-26T04:57:45.312Z,10.25
2023-04-26T05:00:14.110Z,10.07
2023-04-26T05:02:46.477Z,8.90
2023-04-26T05:05:13.693Z,9.45
2023-04-26T05:07:40.857Z,12.90
2023-04-26T05:10:08.454Z,15.05
2023-04-26T05:12:36.683Z,14.32
2023-04-26T05:15:04.607Z,11.52
2023-04-26T05:17:33.389Z,13.40
2023-04-26T05:20:08.893Z,12.00
2023-04-26T05:22:36.830Z,11.15
2023-04-26T05:25:05.406Z,13.30
2023-04-26T05:27:32.632Z,11.48
2023-04-26T05:30:28.894Z,11.60
2023-04-26T05:33:13.701Z,11.40
2023-04-26T05:35:47.004Z,12.43
2023-04-26T05:38:15.081Z,10.65
2023-04-26T05:40:41.920Z,9.70
2023-04-26T05:43:08.970Z,9.48
2023-04-26T05:45:38.466Z,11.82
2023-04-26T05:48:06.277Z,9.73
2023-04-26T05:50:33.093Z,10.32
2023-04-26T05:53:00.068Z,11.98
2023-04-26T05:55:26.952Z,9.90
2023-04-26T05:57:53.795Z,12.65
2023-04-26T06:00:23.451Z,8.77
2023-04-26T06:02:50.497Z,8.30
2023-04-26T06:05:18.575Z,10.82
2023-04-26T06:07:46.377Z,9.15
2023-04-26T06:10:13.443Z,7.53
2023-04-26T06:12:41.311Z,9.43
2023-04-26T06:15:09.245Z,7.03
2023-04-26T06:17:38.632Z,8.63
2023-04-26T06:20:06.338Z,10.35
2023-04-26T06:22:33.250Z,10.27
2023-04-26T06:25:00.254Z,9.13
2023-04-26T06:27:27.223Z,8.35
2023-04-26T06:29:54.810Z,7.70
2023-04-26T06:32:22.790Z,6.18
2023-04-26T06:34:49.839Z,10.70
2023-04-26T06:37:16.678Z,7.97
2023-04-26T06:39:43.856Z,7.05
2023-04-26T06:42:11.852Z,8.13
2023-04-26T06:45:02.239Z,7.80
2023-04-26T06:47:33.349Z,7.80
2023-04-26T06:50:00.717Z,7.85
2023-04-26T06:52:29.660Z,8.82
2023-04-26T06:54:57.762Z,6.38
2023-04-26T06:57:24.744Z,8.93
2023-04-26T06:59:51.559Z,6.65
2023-04-26T07:02:18.525Z,5.47
2023-04-26T07:04:45.862Z,7.10
2023-04-26T07:07:14.289Z,6.00
2023-04-26T07:09:41.641Z,9.93
2023-04-26T07:12:10.865Z,5.57
2023-04-26T07:14:40.635Z,8.45
2023-04-26T07:17:07.800Z,7.15
2023-04-26T07:19:34.803Z,10.32
2023-04-26T07:22:01.851Z,5.20
2023-04-26T07:24:28.659Z,5.97
2023-04-26T07:26:56.177Z,5.88
2023-04-26T07:29:23.221Z,4.18
2023-04-26T07:31:50.140Z,7.30
2023-04-26T07:34:17.075Z,6.45
2023-04-26T07:36:43.873Z,5.53
2023-04-26T07:39:11.710Z,5.63
2023-04-26T07:41:38.585Z,6.65
2023-04-26T07:44:05.513Z,4.97
2023-04-26T07:46:34.974Z,2.88
2023-04-26T07:49:01.857Z,4.40
2023-04-26T07:51:28.805Z,6.30
2023-04-26T07:53:55.898Z,5.75
2023-04-26T07:56:26.359Z,4.18
2023-04-26T07:58:53.377Z,2.72
2023-04-26T08:01:20.133Z,3.75
2023-04-26T08:03:48.915Z,4.85
2023-04-26T08:06:16.754Z,4.63
2023-04-26T08:08:50.558Z,5.10
2023-04-26T08:11:18.142Z,3.28
2023-04-26T08:13:45.085Z,4.70
2023-04-26T08:16:12.054Z,8.63
2023-04-26T08:18:38.956Z,3.20
2023-04-26T08:21:06.402Z,5.13
2023-04-26T08:23:36.414Z,4.75
2023-04-26T08:26:04.031Z,8.40
2023-04-26T08:28:30.977Z,4.97
2023-04-26T08:30:58.130Z,4.32
2023-04-26T08:33:25.815Z,5.93
2023-04-26T08:35:52.690Z,7.15
2023-04-26T08:38:19.554Z,6.25
2023-04-26T08:40:47.748Z,4.55
2023-04-26T08:43:17.292Z,9.10
2023-04-26T08:45:49.287Z,5.60
2023-04-26T08:48:18.359Z,6.80
2023-04-26T08:50:48.477Z,3.95
2023-04-26T08:53:17.758Z,7.18
2023-04-26T08:55:49.639Z,3.00
2023-04-26T08:58:18.492Z,4.47
2023-04-26T09:00:46.347Z,5.18
2023-04-26T09:03:13.595Z,6.93
2023-04-26T09:05:45.211Z,3.50
2023-04-26T09:08:18.118Z,5.20
2023-04-26T09:10:45.530Z,4.00
2023-04-26T09:13:12.908Z,2.63
2023-04-26T09:15:40.413Z,6.38
2023-04-26T09:18:18.076Z,5.88
2023-04-26T09:20:46.196Z,3.38
2023-04-26T09:23:13.108Z,7.30
2023-04-26T09:25:39.866Z,4.65
2023-04-26T09:28:21.475Z,2.97
2023-04-26T09:30:49.086Z,5.32
2023-04-26T09:33:16.174Z,3.92
2023-04-26T09:35:44.265Z,5.95
2023-04-26T09:38:15.882Z,4.00
2023-04-26T09:40:44.998Z,3.67
2023-04-26T09:43:14.303Z,2.65
2023-04-26T09:45:56.834Z,2.80
2023-04-26T09:48:26.757Z,3.38
2023-04-26T09:50:57.225Z,5.55
2023-04-26T09:53:34.785Z,5.90
2023-04-26T09:56:22.093Z,2.83
2023-04-26T09:59:01.193Z,2.92
2023-04-26T10:01:30.539Z,3.88
2023-04-26T10:04:00.610Z,4.00
2023-04-26T10:06:28.639Z,3.90
2023-04-26T10:08:56.598Z,3.45
2023-04-26T10:11:24.734Z,4.43
2023-04-26T10:13:54.700Z,3.85
2023-04-26T10:16:21.856Z,3.72
2023-04-26T10:18:49.349Z,3.88
2023-04-26T10:21:36.961Z,4.93
2023-04-26T10:24:04.516Z,5.32
2023-04-26T10:26:57.375Z,5.10
2023-04-26T10:29:27.111Z,2.45
2023-04-26T10:32:04.336Z,4.35
2023-04-26T10:34:37.078Z,5.90
2023-04-26T10:37:22.418Z,4.20
2023-04-26T10:39:49.271Z,4.60
2023-04-26T10:42:26.529Z,4.28
2023-04-26T10:45:20.541Z,6.15
2023-04-26T10:47:47.496Z,3.95
2023-04-26T10:50:14.340Z,4.15
2023-04-26T10:53:13.705Z,7.38
2023-04-26T10:55:43.119Z,3.72
2023-04-26T10:58:30.408Z,5.00
2023-04-26T11:01:18.966Z,4.32
2023-04-26T11:03:58.989Z,2.33
2023-04-26T11:06:29.692Z,2.90
2023-04-26T11:08:56.534Z,6.35
2023-04-26T11:11:29.187Z,4.55
2023-04-26T11:13:56.789Z,4.97
2023-04-26T11:16:26.662Z,1.70
2023-04-26T11:18:55.741Z,5.18
2023-04-26T11:21:22.667Z,6.55
2023-04-26T11:23:56.195Z,6.07
2023-04-26T11:26:24.590Z,2.78
2023-04-26T11:28:51.680Z,2.17
2023-04-26T11:31:19.367Z,3.25
2023-04-26T11:33:49.826Z,3.00
2023-04-26T11:36:19.441Z,4.05
2023-04-26T11:38:46.301Z,4.05
2023-04-26T11:41:13.139Z,2.60
2023-04-26T11:43:40.399Z,4.28
2023-04-26T11:46:09.773Z,2.85
2023-04-26T11:48:39.022Z,3.67
2023-04-26T11:51:08.056Z,5.90
2023-04-26T11:53:42.882Z,4.15
2023-04-26T11:56:20.155Z,2.50
2023-04-26T11:58:51.753Z,4.75
2023-04-26T12:01:27.780Z,3.15
2023-04-26T12:03:57.730Z,3.83
2023-04-26T12:06:42.619Z,3.55
2023-04-26T12:09:10.904Z,4.25
2023-04-26T12:11:41.205Z,4.70
2023-04-26T12:14:09.786Z,4.00
2023-04-26T12:16:37.351Z,3.50
2023-04-26T12:19:08.830Z,4.35
2023-04-26T12:21:43.447Z,4.78
2023-04-26T12:24:26.558Z,8.50
2023-04-26T12:26:53.591Z,4.53
2023-04-26T12:29:20.559Z,5.10
2023-04-26T12:31:48.204Z,6.95
2023-04-26T12:34:15.172Z,2.80
2023-04-26T12:36:44.414Z,7.25
2023-04-26T12:39:15.749Z,5.63
2023-04-26T12:41:44.228Z,5.50
2023-04-26T12:44:12.392Z,4.43
2023-04-26T12:46:39.565Z,4.75
2023-04-26T12:49:06.511Z,5.63
2023-04-26T12:51:33.790Z,4.65
2023-04-26T12:54:00.707Z,8.90
2023-04-26T12:56:29.338Z,4.32
2023-04-26T12:58:56.275Z,4.72
2023-04-26T13:01:23.119Z,5.47
2023-04-26T13:03:50.223Z,4.68
2023-04-26T13:06:17.833Z,4.82
2023-04-26T13:08:44.715Z,6.38
2023-04-26T13:11:11.587Z,3.20
2023-04-26T13:13:43.598Z,3.70
2023-04-26T13:16:11.874Z,5.35
2023-04-26T13:18:39.648Z,5.75
2023-04-26T13:21:06.547Z,3.85
2023-04-26T13:23:33.308Z,3.97
2023-04-26T13:26:00.116Z,3.38
2023-04-26T13:28:27.332Z,2.17
2023-04-26T13:30:55.714Z,3.03
2023-04-26T13:33:22.766Z,3.78
2023-04-26T13:35:49.659Z,3.13
2023-04-26T13:38:17.166Z,3.33
2023-04-26T13:40:44.643Z,2.45
2023-04-26T13:43:11.602Z,3.95
2023-04-26T13:45:38.807Z,6.20
2023-04-26T13:48:06.025Z,5.25
2023-04-26T13:50:32.910Z,4.35
2023-04-26T13:53:00.089Z,6.47
2023-04-26T13:55:26.938Z,7.25
2023-04-26T13:57:53.739Z,4.18
2023-04-26T14:00:21.279Z,2.78
2023-04-26T14:02:49.702Z,4.40
2023-04-26T14:05:16.972Z,4.55
2023-04-26T14:07:43.840Z,4.20
2023-04-26T14:10:12.387Z,3.97
2023-04-26T14:12:39.687Z,4.88
2023-04-26T14:15:07.670Z,4.32
2023-04-26T14:17:34.540Z,3.47
2023-04-26T14:20:01.461Z,4.05
2023-04-26T14:22:28.262Z,4.75
2023-04-26T14:24:55.217Z,5.20
2023-04-26T14:27:22.016Z,5.72
2023-04-26T14:29:48.772Z,6.20
2023-04-26T14:32:15.680Z,4.40
2023-04-26T14:34:42.874Z,4.13
2023-04-26T14:37:10.390Z,3.97
2023-04-26T14:39:37.674Z,5.47
2023-04-26T14:42:04.917Z,3.20
2023-04-26T14:44:31.814Z,6.10
2023-04-26T14:46:58.666Z,6.97
2023-04-26T14:49:25.699Z,2.90
2023-04-26T14:51:53.592Z,4.20
2023-04-26T14:54:21.403Z,2.78
2023-04-26T14:56:48.712Z,6.60
2023-04-26T14:59:16.019Z,4.22
2023-04-26T15:01:42.912Z,3.30
2023-04-26T15:04:09.873Z,4.15
2023-04-26T15:06:37.122Z,4.75
2023-04-26T15:09:04.569Z,4.20
2023-04-26T15:11:31.757Z,3.35
2023-04-26T15:13:58.557Z,2.53
2023-04-26T15:16:25.426Z,3.08
2023-04-26T15:18:52.466Z,5.18
2023-04-26T15:21:20.446Z,4.32
2023-04-26T15:23:47.437Z,3.50
2023-04-26T15:26:14.627Z,2.00
2023-04-26T15:28:41.426Z,3.55
2023-04-26T15:31:10.548Z,5.00
2023-04-26T15:33:37.461Z,3.90
2023-04-26T15:36:05.053Z,3.90
2023-04-26T15:38:33.806Z,5.07
2023-04-26T15:41:01.064Z,2.53
2023-04-26T15:43:28.185Z,4.70
2023-04-26T15:45:55.265Z,3.42
2023-04-26T15:48:22.156Z,3.78
2023-04-26T15:50:50.474Z,2.90
2023-04-26T15:53:17.327Z,4.68
2023-04-26T15:55:44.349Z,3.15
2023-04-26T15:58:11.251Z,2.80
2023-04-26T16:00:38.145Z,3.88
2023-04-26T16:03:05.216Z,8.27
2023-04-26T16:05:32.140Z,4.60
2023-04-26T16:07:59.715Z,3.45
2023-04-26T16:10:26.933Z,3.90
2023-04-26T16:12:53.709Z,3.80
2023-04-26T16:15:20.598Z,3.50
2023-04-26T16:17:47.621Z,2.70
2023-04-26T16:20:15.087Z,7.68
2023-04-26T16:22:42.278Z,4.18
2023-04-26T16:25:09.909Z,3.60
2023-04-26T16:27:36.845Z,2.38
2023-04-26T16:30:04.182Z,6.20
2023-04-26T16:32:31.349Z,3.45
2023-04-26T16:34:58.308Z,4.93
2023-04-26T16:37:25.126Z,5.18
2023-04-26T16:39:55.739Z,4.78
2023-04-26T16:42:22.816Z,5.22
2023-04-26T16:44:49.625Z,3.67
2023-04-26T16:47:16.384Z,4.45
2023-04-26T16:49:43.274Z,3.35
2023-04-26T16:52:10.060Z,4.18
2023-04-26T16:54:36.996Z,5.72
2023-04-26T16:57:04.499Z,1.58
2023-04-26T16:59:31.400Z,5.18
2023-04-26T17:01:58.331Z,4.13
2023-04-26T17:04:26.286Z,4.40
2023-04-26T17:06:54.623Z,4.85
2023-04-26T17:09:21.534Z,5.07
2023-04-26T17:11:49.870Z,5.53
2023-04-26T17:14:16.812Z,4.10
2023-04-26T17:16:43.697Z,2.92
2023-04-26T17:19:10.726Z,4.55
2023-04-26T17:21:37.632Z,4.10
2023-04-26T17:24:04.734Z,4.97
2023-04-26T17:26:31.550Z,3.63
2023-04-26T17:28:58.406Z,3.72
2023-04-26T17:31:25.421Z,3.85
2023-04-26T17:33:52.471Z,6.05
2023-04-26T17:36:19.488Z,4.32
2023-04-26T17:38:46.378Z,7.13
2023-04-26T17:41:13.501Z,3.95
2023-04-26T17:43:40.516Z,3.22
2023-04-26T17:46:07.447Z,4.55
2023-04-26T17:48:34.366Z,3.00
2023-04-26T17:51:01.266Z,3.88
2023-04-26T17:53:28.133Z,4.72
2023-04-26T17:55:55.214Z,5.97
2023-04-26T17:58:22.022Z,3.40
2023-04-26T18:00:49.539Z,3.38
2023-04-26T18:03:16.682Z,3.33
2023-04-26T18:05:43.638Z,6.22
2023-04-26T18:08:10.658Z,5.90
2023-04-26T18:10:37.508Z,4.43
2023-04-26T18:13:04.310Z,2.85
2023-04-26T18:15:31.272Z,3.22
2023-04-26T18:17:58.111Z,3.35
2023-04-26T18:20:24.967Z,3.28
2023-04-26T18:22:51.798Z,3.95
2023-04-26T18:25:18.662Z,5.07
2023-04-26T18:27:46.871Z,3.35
2023-04-26T18:30:13.912Z,5.22
2023-04-26T18:32:41.299Z,4.40
2023-04-26T18:35:09.487Z,7.03
2023-04-26T18:37:36.587Z,10.30
2023-04-26T18:40:05.102Z,4.95
2023-04-26T18:42:31.946Z,4.35
2023-04-26T18:45:00.854Z,4.57
2023-04-26T18:47:27.697Z,9.38
2023-04-26T18:49:54.461Z,6.95
2023-04-26T18:52:21.211Z,7.25
2023-04-26T18:54:47.941Z,6.65
2023-04-26T18:57:15.529Z,3.92
2023-04-26T18:59:42.338Z,6.43
2023-04-26T19:02:09.323Z,5.70
2023-04-26T19:04:36.472Z,4.47
2023-04-26T19:07:03.673Z,5.82
2023-04-26T19:09:42.785Z,6.10
2023-04-26T19:12:13.864Z,5.45
2023-04-26T19:14:40.668Z,5.85
2023-04-26T19:17:07.441Z,7.00
2023-04-26T19:19:34.238Z,5.65
2023-04-26T19:22:01.154Z,5.43
2023-04-26T19:24:27.985Z,4.90
2023-04-26T19:26:54.946Z,5.75
2023-04-26T19:29:21.871Z,5.93
2023-04-26T19:31:48.792Z,4.65
2023-04-26T19:34:16.189Z,6.78
2023-04-26T19:36:43.382Z,8.68
2023-04-26T19:39:10.162Z,7.03
2023-04-26T19:41:36.953Z,8.77
2023-04-26T19:44:03.905Z,8.07
2023-04-26T19:46:30.899Z,7.88
2023-04-26T19:48:57.702Z,7.90
2023-04-26T19:51:24.498Z,6.13
2023-04-26T19:53:51.311Z,7.00
2023-04-26T19:56:18.077Z,4.93
2023-04-26T19:58:44.920Z,6.97
2023-04-26T20:01:11.752Z,7.78
2023-04-26T20:03:40.594Z,12.13
2023-04-26T20:06:09.442Z,16.65
2023-04-26T20:08:36.266Z,18.13
2023-04-26T20:11:04.685Z,21.25
2023-04-26T20:13:32.795Z,19.52
2023-04-26T20:15:59.672Z,17.75
2023-04-26T20:18:26.864Z,13.63
2023-04-26T20:20:53.698Z,14.57
2023-04-26T20:23:20.597Z,11.40
2023-04-26T20:25:47.382Z,11.07
2023-04-26T20:28:14.209Z,7.03
2023-04-26T20:30:41.749Z,8.18
2023-04-26T20:33:08.625Z,8.38
2023-04-26T20:35:35.511Z,8.40
2023-04-26T20:38:02.638Z,7.70
2023-04-26T20:40:29.491Z,8.32
2023-04-26T20:42:56.276Z,8.65
2023-04-26T20:45:23.348Z,10.07
2023-04-26T20:47:50.118Z,6.65
2023-04-26T20:50:17.325Z,9.88
2023-04-26T20:52:46.322Z,7.90
2023-04-26T20:55:13.689Z,7.80
2023-04-26T20:57:41.719Z,9.20
2023-04-26T21:00:10.541Z,7.50
2023-04-26T21:02:37.998Z,9.68
2023-04-26T21:05:06.179Z,12.05
2023-04-26T21:07:33.774Z,10.13
2023-04-26T21:10:00.731Z,7.97
2023-04-26T21:12:27.490Z,8.73
2023-04-26T21:14:54.290Z,9.35
2023-04-26T21:17:22.294Z,11.93
2023-04-26T21:19:49.084Z,10.82
2023-04-26T21:22:15.845Z,9.45
2023-04-26T21:24:42.593Z,9.32
2023-04-26T21:27:09.609Z,9.50
2023-04-26T21:29:36.482Z,8.70
2023-04-26T21:32:03.701Z,7.63
2023-04-26T21:34:30.819Z,6.35
2023-04-26T21:36:57.681Z,7.22
2023-04-26T21:39:24.637Z,9.98
2023-04-26T21:41:51.470Z,8.27
2023-04-26T21:44:18.248Z,9.30
2023-04-26T21:46:45.078Z,8.30
2023-04-26T21:49:12.209Z,8.90
2023-04-26T21:51:39.197Z,11.75
2023-04-26T21:54:06.132Z,10.02
2023-04-26T21:56:32.852Z,7.22
2023-04-26T21:58:59.830Z,9.02
2023-04-26T22:01:26.788Z,10.20
2023-04-26T22:03:53.738Z,7.70
2023-04-26T22:06:20.585Z,8.02
2023-04-26T22:08:47.394Z,7.45
2023-04-26T22:11:14.278Z,9.07
2023-04-26T22:13:41.099Z,6.53
2023-04-26T22:16:07.909Z,8.80
2023-04-26T22:18:35.401Z,8.90
2023-04-26T22:21:02.235Z,7.75
2023-04-26T22:23:31.171Z,7.80
2023-04-26T22:25:59.533Z,8.40
2023-04-26T22:28:26.828Z,7.47
2023-04-26T22:30:53.655Z,8.70
2023-04-26T22:33:20.686Z,7.45
2023-04-26T22:35:47.468Z,6.78
2023-04-26T22:38:14.356Z,7.50
2023-04-26T22:40:41.084Z,7.15
2023-04-26T22:43:07.964Z,9.93
2023-04-26T22:45:34.925Z,9.70
2023-04-26T22:48:01.876Z,8.05
2023-04-26T22:50:28.793Z,8.43
2023-04-26T22:52:55.977Z,10.35
2023-04-26T22:55:22.921Z,8.85
2023-04-26T22:57:49.718Z,10.48
2023-04-26T23:00:17.372Z,8.70
2023-04-26T23:02:44.309Z,9.95
2023-04-26T23:05:11.472Z,6.72
2023-04-26T23:07:39.562Z,6.90
2023-04-26T23:10:07.390Z,7.97
2023-04-26T23:12:35.883Z,8.43
2023-04-26T23:15:04.993Z,7.07
2023-04-26T23:17:33.824Z,7.75
2023-04-26T23:20:01.145Z,7.07
2023-04-26T23:22:28.169Z,6.50
2023-04-26T23:24:55.387Z,6.15
2023-04-26T23:27:24.263Z,7.80
2023-04-26T23:29:51.574Z,6.57
2023-04-26T23:32:18.329Z,9.15
2023-04-26T23:34:45.419Z,6.88
2023-04-26T23:37:12.250Z,5.13
2023-04-26T23:39:39.120Z,7.03
2023-04-26T23:42:06.547Z,8.23
2023-04-26T23:44:33.602Z,6.35
2023-04-26T23:47:00.528Z,7.28
2023-04-26T23:49:27.593Z,6.82
2023-04-26T23:51:54.373Z,7.80
2023-04-26T23:54:21.181Z,6.13
2023-04-26T23:56:48.026Z,9.05
2023-04-26T23:59:16.400Z,7.30
